createdAt,value
2018-04-24T00:02:07.379Z,77.79
2018-04-24T00:04:34.913Z,78.36
2018-04-24T00:07:02.467Z,78.66
2018-04-24T00:09:30.018Z,78.67
2018-04-24T00:11:57.574Z,78.12
2018-04-24T00:14:25.116Z,77.50
2018-04-24T00:16:52.675Z,77.68
2018-04-24T00:19:20.226Z,78.31
2018-04-24T00:21:47.799Z,78.31
2018-04-24T00:24:15.352Z,78.43
2018-04-24T00:26:42.898Z,78.89
2018-04-24T00:29:10.436Z,79.23
2018-04-24T00:31:37.993Z,78.97
2018-04-24T00:34:05.540Z,80.46
2018-04-24T00:36:33.093Z,79.01
2018-04-24T00:39:00.710Z,79.93
2018-04-24T00:41:28.274Z,80.09
2018-04-24T00:43:55.828Z,80.15
2018-04-24T00:46:23.396Z,81.16
2018-04-24T00:48:50.923Z,79.78
2018-04-24T00:51:18.505Z,79.78
2018-04-24T00:53:46.034Z,79.62
2018-04-24T00:56:13.623Z,79.59
2018-04-24T00:58:41.143Z,78.82
2018-04-24T01:01:08.691Z,79.06
2018-04-24T01:03:36.386Z,79.52
2018-04-24T01:06:03.943Z,79.58
2018-04-24T01:08:31.524Z,79.51
2018-04-24T01:10:59.102Z,79.86
2018-04-24T01:13:26.744Z,80.14
2018-04-24T01:15:54.305Z,81.73
2018-04-24T01:18:21.831Z,81.87
2018-04-24T01:20:49.541Z,80.12
2018-04-24T01:23:18.054Z,80.05
2018-04-24T01:25:45.613Z,80.82
2018-04-24T01:28:13.142Z,80.49
2018-04-24T01:30:40.694Z,80.20
2018-04-24T01:33:08.218Z,81.04
2018-04-24T01:35:35.800Z,80.28
2018-04-24T01:38:03.326Z,79.30
2018-04-24T01:40:30.851Z,79.64
2018-04-24T01:42:58.406Z,80.60
2018-04-24T01:45:25.956Z,79.99
2018-04-24T01:47:53.513Z,80.13
2018-04-24T01:50:21.035Z,80.48
2018-04-24T01:52:48.586Z,80.06
2018-04-24T01:55:16.095Z,80.04
2018-04-24T01:57:43.642Z,79.85
2018-04-24T02:00:11.169Z,79.77
2018-04-24T02:02:38.752Z,80.66
2018-04-24T02:05:06.271Z,80.77
2018-04-24T02:07:33.821Z,80.81
2018-04-24T02:10:01.327Z,80.22
2018-04-24T02:12:28.873Z,80.87
2018-04-24T02:14:56.651Z,80.96
2018-04-24T02:17:24.410Z,81.13
2018-04-24T02:19:51.930Z,81.40
2018-04-24T02:22:19.509Z,81.05
2018-04-24T02:24:49.235Z,81.21
2018-04-24T02:27:17.019Z,81.30
2018-04-24T02:29:44.549Z,80.85
2018-04-24T02:32:12.126Z,81.22
2018-04-24T02:34:39.650Z,81.15
2018-04-24T02:37:08.561Z,81.96
2018-04-24T02:39:36.428Z,82.03
2018-04-24T02:42:04.008Z,81.35
2018-04-24T02:44:31.533Z,81.40
2018-04-24T02:46:59.108Z,80.69
2018-04-24T02:49:26.665Z,80.58
2018-04-24T02:51:54.344Z,81.81
2018-04-24T02:54:21.864Z,81.67
2018-04-24T02:56:49.767Z,81.35
2018-04-24T02:59:17.289Z,80.96
2018-04-24T03:01:44.887Z,81.25
2018-04-24T03:04:12.419Z,81.24
2018-04-24T03:06:40.004Z,82.70
2018-04-24T03:09:07.529Z,82.48
2018-04-24T03:11:35.130Z,83.08
2018-04-24T03:14:02.662Z,82.81
2018-04-24T03:16:30.235Z,82.92
2018-04-24T03:18:57.763Z,82.86
2018-04-24T03:21:25.288Z,83.86
2018-04-24T03:23:52.845Z,81.86
2018-04-24T03:26:20.388Z,81.53
2018-04-24T03:28:48.670Z,81.70
2018-04-24T03:31:16.198Z,81.95
2018-04-24T03:33:43.876Z,81.39
2018-04-24T03:36:11.403Z,81.60
2018-04-24T03:38:38.954Z,81.88
2018-04-24T03:41:06.483Z,81.33
2018-04-24T03:43:34.113Z,81.30
2018-04-24T03:46:01.636Z,82.41
2018-04-24T03:48:29.232Z,82.26
2018-04-24T03:50:56.819Z,81.68
2018-04-24T03:53:24.371Z,81.73
2018-04-24T03:55:51.920Z,82.67
2018-04-24T03:58:19.574Z,82.12
2018-04-24T04:00:48.729Z,83.99
2018-04-24T04:03:16.335Z,82.39
2018-04-24T04:05:45.446Z,83.40
2018-04-24T04:08:13.006Z,83.06
2018-04-24T04:10:41.878Z,83.21
2018-04-24T04:13:10.698Z,83.62
2018-04-24T04:15:38.237Z,83.14
2018-04-24T04:18:17.641Z,83.61
2018-04-24T04:20:56.943Z,83.93
2018-04-24T04:23:36.473Z,83.32
2018-04-24T04:26:04.099Z,82.93
2018-04-24T04:28:31.651Z,82.47
2018-04-24T04:31:02.156Z,82.93
2018-04-24T04:33:29.873Z,83.23
2018-04-24T04:35:57.408Z,82.92
2018-04-24T04:38:25.934Z,83.30
2018-04-24T04:40:53.557Z,82.70
2018-04-24T04:43:21.189Z,82.51
2018-04-24T04:45:48.774Z,82.02
2018-04-24T04:48:16.545Z,82.71
2018-04-24T04:50:44.423Z,81.98
2018-04-24T04:53:12.023Z,81.80
2018-04-24T04:55:39.626Z,82.23
2018-04-24T04:58:07.177Z,82.36
2018-04-24T05:00:34.737Z,82.81
2018-04-24T05:03:02.402Z,82.78
2018-04-24T05:05:31.481Z,82.99
2018-04-24T05:07:59.184Z,82.43
2018-04-24T05:10:26.783Z,83.44
2018-04-24T05:12:54.305Z,83.16
2018-04-24T05:15:25.424Z,82.40
2018-04-24T05:17:53.213Z,82.58
2018-04-24T05:20:23.948Z,82.42
2018-04-24T05:22:51.698Z,82.01
2018-04-24T05:25:20.054Z,82.10
2018-04-24T05:27:49.151Z,81.46
2018-04-24T05:30:16.733Z,81.30
2018-04-24T05:32:44.253Z,80.86
2018-04-24T05:35:11.809Z,81.61
2018-04-24T05:37:39.415Z,81.79
2018-04-24T05:40:08.575Z,81.80
2018-04-24T05:42:36.114Z,81.56
2018-04-24T05:45:03.693Z,80.43
2018-04-24T05:47:31.219Z,80.98
2018-04-24T05:49:58.802Z,81.21
2018-04-24T05:52:26.399Z,81.32
2018-04-24T05:54:53.926Z,81.59
2018-04-24T05:57:23.801Z,82.13
2018-04-24T05:59:53.927Z,81.54
2018-04-24T06:02:22.833Z,81.52
2018-04-24T06:04:50.609Z,81.83
2018-04-24T06:07:18.194Z,81.66
2018-04-24T06:09:45.739Z,81.68
2018-04-24T06:12:13.269Z,80.27
2018-04-24T06:14:40.823Z,81.36
2018-04-24T06:17:08.441Z,80.78
2018-04-24T06:19:35.993Z,80.14
2018-04-24T06:22:03.529Z,80.62
2018-04-24T06:24:31.103Z,79.15
2018-04-24T06:26:58.656Z,78.84
2018-04-24T06:29:26.233Z,78.53
2018-04-24T06:31:53.786Z,79.21
2018-04-24T06:34:21.358Z,80.51
2018-04-24T06:36:49.015Z,78.10
2018-04-24T06:39:16.665Z,78.65
2018-04-24T06:41:46.147Z,77.99
2018-04-24T06:44:13.669Z,77.63
2018-04-24T06:46:41.227Z,77.57
2018-04-24T06:49:08.824Z,76.81
2018-04-24T06:51:36.401Z,76.54
2018-04-24T06:54:03.935Z,76.25
2018-04-24T06:56:34.534Z,76.67
2018-04-24T06:59:02.134Z,76.33
2018-04-24T07:01:29.703Z,75.69
2018-04-24T07:03:58.688Z,76.11
2018-04-24T07:06:26.344Z,75.42
2018-04-24T07:08:53.791Z,76.01
2018-04-24T07:11:21.343Z,75.35
2018-04-24T07:13:48.895Z,75.61
2018-04-24T07:16:18.661Z,76.21
2018-04-24T07:18:46.530Z,74.71
2018-04-24T07:21:14.102Z,74.13
2018-04-24T07:23:41.656Z,74.08
2018-04-24T07:26:09.230Z,73.15
2018-04-24T07:28:36.762Z,72.86
2018-04-24T07:31:04.325Z,71.44
2018-04-24T07:33:31.841Z,71.63
2018-04-24T07:35:59.443Z,72.01
2018-04-24T07:38:26.967Z,71.49
2018-04-24T07:40:54.587Z,72.75
2018-04-24T07:43:22.125Z,71.40
2018-04-24T07:45:49.676Z,71.33
2018-04-24T07:48:17.230Z,71.57
2018-04-24T07:50:44.829Z,70.63
2018-04-24T07:53:12.434Z,71.85
2018-04-24T07:55:39.985Z,71.38
2018-04-24T07:58:07.514Z,70.62
2018-04-24T08:00:35.061Z,71.00
2018-04-24T08:03:02.571Z,70.30
2018-04-24T08:05:30.120Z,71.02
2018-04-24T08:07:57.643Z,69.69
2018-04-24T08:10:25.171Z,68.72
2018-04-24T08:12:52.719Z,68.31
2018-04-24T08:15:22.201Z,69.32
2018-04-24T08:17:52.967Z,68.87
2018-04-24T08:20:21.268Z,68.73
2018-04-24T08:22:49.394Z,67.94
2018-04-24T08:25:18.787Z,67.17
2018-04-24T08:27:46.381Z,67.07
2018-04-24T08:30:13.913Z,66.67
2018-04-24T08:32:44.511Z,65.90
2018-04-24T08:35:13.573Z,64.69
2018-04-24T08:37:42.865Z,64.84
2018-04-24T08:40:11.845Z,63.77
2018-04-24T08:42:40.693Z,64.16
2018-04-24T08:45:10.535Z,63.00
2018-04-24T08:47:39.384Z,63.06
2018-04-24T08:50:07.630Z,63.08
2018-04-24T08:52:35.288Z,62.60
2018-04-24T08:55:05.240Z,62.95
2018-04-24T08:57:33.138Z,62.07
2018-04-24T09:00:01.143Z,62.62
2018-04-24T09:02:31.500Z,61.61
2018-04-24T09:05:03.107Z,62.32
2018-04-24T09:07:34.646Z,61.35
2018-04-24T09:10:05.395Z,61.70
2018-04-24T09:12:35.263Z,61.78
2018-04-24T09:15:02.838Z,61.69
2018-04-24T09:17:32.729Z,61.14
2018-04-24T09:20:01.910Z,61.89
2018-04-24T09:22:33.304Z,61.54
2018-04-24T09:25:04.167Z,61.93
2018-04-24T09:27:33.497Z,62.33
2018-04-24T09:30:04.881Z,61.10
2018-04-24T09:32:33.466Z,60.36
2018-04-24T09:35:01.014Z,61.39
2018-04-24T09:37:31.385Z,60.52
2018-04-24T09:39:59.325Z,60.57
2018-04-24T09:42:27.127Z,59.94
2018-04-24T09:44:54.829Z,60.50
2018-04-24T09:47:24.295Z,60.06
2018-04-24T09:49:53.195Z,59.41
2018-04-24T09:52:22.278Z,59.75
2018-04-24T09:54:51.382Z,59.30
2018-04-24T09:57:22.475Z,59.37
2018-04-24T09:59:51.713Z,59.46
2018-04-24T10:02:20.222Z,59.05
2018-04-24T10:04:50.079Z,58.04
2018-04-24T10:07:17.721Z,57.50
2018-04-24T10:09:45.983Z,57.05
2018-04-24T10:12:14.216Z,56.85
2018-04-24T10:14:42.650Z,57.05
2018-04-24T10:17:11.374Z,55.98
2018-04-24T10:19:39.875Z,56.37
2018-04-24T10:22:09.113Z,56.13
2018-04-24T10:24:36.738Z,55.27
2018-04-24T10:27:04.286Z,55.35
2018-04-24T10:29:31.846Z,55.43
2018-04-24T10:32:01.023Z,54.93
2018-04-24T10:34:30.272Z,55.35
2018-04-24T10:37:00.701Z,54.85
2018-04-24T10:39:28.393Z,54.23
2018-04-24T10:41:57.943Z,54.56
2018-04-24T10:44:26.350Z,53.87
2018-04-24T10:46:54.756Z,53.63
2018-04-24T10:49:23.587Z,54.29
2018-04-24T10:51:51.513Z,52.08
2018-04-24T10:54:19.246Z,52.71
2018-04-24T10:56:48.199Z,52.30
2018-04-24T10:59:16.233Z,52.25
2018-04-24T11:01:44.352Z,51.87
2018-04-24T11:04:12.201Z,51.45
2018-04-24T11:06:41.351Z,49.68
2018-04-24T11:09:10.556Z,50.07
2018-04-24T11:11:39.463Z,51.30
2018-04-24T11:14:07.034Z,51.08
2018-04-24T11:16:34.790Z,50.62
2018-04-24T11:19:02.692Z,51.10
2018-04-24T11:21:30.716Z,49.61
2018-04-24T11:23:58.682Z,49.70
2018-04-24T11:26:26.721Z,51.34
2018-04-24T11:28:54.543Z,51.36
2018-04-24T11:31:22.286Z,49.51
2018-04-24T11:33:49.997Z,50.19
2018-04-24T11:36:17.531Z,50.99
2018-04-24T11:38:45.356Z,50.14
2018-04-24T11:41:14.783Z,49.50
2018-04-24T11:43:42.861Z,48.31
2018-04-24T11:46:11.962Z,48.20
2018-04-24T11:48:41.299Z,48.48
2018-04-24T11:51:09.918Z,49.15
2018-04-24T11:53:38.421Z,48.49
2018-04-24T11:56:06.416Z,49.56
2018-04-24T11:58:34.165Z,49.99
2018-04-24T12:01:01.702Z,48.20
2018-04-24T12:03:29.354Z,48.70
2018-04-24T12:05:56.881Z,48.59
2018-04-24T12:08:24.663Z,48.51
2018-04-24T12:10:52.681Z,48.05
2018-04-24T12:13:20.673Z,48.13
2018-04-24T12:15:49.023Z,46.71
2018-04-24T12:18:16.765Z,47.76
2018-04-24T12:20:44.321Z,46.58
2018-04-24T12:23:11.845Z,45.38
2018-04-24T12:25:39.403Z,47.00
2018-04-24T12:28:06.925Z,47.26
2018-04-24T12:30:34.487Z,46.55
2018-04-24T12:35:37.849Z,44.55
2018-04-24T12:38:07.506Z,43.68
2018-04-24T12:40:35.491Z,45.90
2018-04-24T12:43:03.917Z,45.10
2018-04-24T12:45:34.473Z,46.92
2018-04-24T12:48:02.420Z,46.02
2018-04-24T12:50:31.045Z,44.37
2018-04-24T12:53:00.999Z,44.61
2018-04-24T12:55:30.449Z,45.04
2018-04-24T12:58:00.015Z,44.81
2018-04-24T13:00:28.473Z,45.11
2018-04-24T13:02:58.856Z,46.11
2018-04-24T13:05:27.482Z,46.64
2018-04-24T13:07:56.835Z,48.05
2018-04-24T13:10:27.759Z,44.93
2018-04-24T13:12:55.470Z,45.43
2018-04-24T13:15:25.829Z,45.62
2018-04-24T13:17:54.145Z,45.97
2018-04-24T13:23:00.927Z,44.89
2018-04-24T13:25:34.566Z,43.80
2018-04-24T13:28:04.061Z,43.55
2018-04-24T13:30:35.633Z,44.20
2018-04-24T13:33:05.554Z,43.64
2018-04-24T13:35:33.639Z,44.23
2018-04-24T13:38:04.868Z,44.41
2018-04-24T13:40:33.614Z,43.16
2018-04-24T13:43:02.400Z,42.63
2018-04-24T13:45:30.205Z,42.56
2018-04-24T13:47:57.774Z,43.66
2018-04-24T13:50:26.299Z,43.32
2018-04-24T13:52:53.905Z,43.92
2018-04-24T13:55:24.053Z,42.64
2018-04-24T13:57:51.558Z,44.51
2018-04-24T14:00:21.672Z,43.27
2018-04-24T14:02:52.937Z,42.80
2018-04-24T14:05:21.226Z,42.69
2018-04-24T14:07:50.526Z,42.28
2018-04-24T14:10:20.721Z,42.75
2018-04-24T14:12:51.438Z,42.94
2018-04-24T14:15:19.373Z,43.56
2018-04-24T14:17:50.232Z,41.89
2018-04-24T14:20:19.179Z,42.63
2018-04-24T14:22:48.535Z,42.91
2018-04-24T14:25:16.205Z,42.51
2018-04-24T14:27:43.733Z,41.49
2018-04-24T14:30:11.289Z,41.76
2018-04-24T14:32:38.837Z,40.23
2018-04-24T14:35:06.386Z,39.47
2018-04-24T14:37:33.917Z,39.48
2018-04-24T14:40:01.599Z,38.92
2018-04-24T14:42:29.155Z,41.13
2018-04-24T14:44:56.676Z,41.14
2018-04-24T14:47:24.226Z,40.80
2018-04-24T14:49:51.808Z,40.69
2018-04-24T14:52:19.395Z,40.61
2018-04-24T14:54:46.960Z,41.08
2018-04-24T14:57:14.541Z,41.30
2018-04-24T14:59:42.071Z,40.68
2018-04-24T15:02:09.614Z,39.80
2018-04-24T15:04:37.142Z,40.71
2018-04-24T15:07:04.737Z,40.31
2018-04-24T15:09:32.249Z,40.72
2018-04-24T15:11:59.800Z,40.86
2018-04-24T15:14:27.325Z,40.17
2018-04-24T15:16:54.877Z,39.26
2018-04-24T15:19:22.443Z,39.95
2018-04-24T15:21:50.005Z,40.80
2018-04-24T15:24:17.533Z,40.49
2018-04-24T15:26:45.085Z,40.75
2018-04-24T15:29:12.593Z,39.56
2018-04-24T15:31:40.142Z,39.95
2018-04-24T15:34:07.666Z,39.77
2018-04-24T15:36:35.256Z,39.11
2018-04-24T15:39:07.608Z,39.45
2018-04-24T15:41:45.262Z,40.07
2018-04-24T15:44:16.846Z,40.02
2018-04-24T15:46:51.210Z,40.28
2018-04-24T15:49:30.297Z,39.59
2018-04-24T15:52:02.815Z,40.04
2018-04-24T15:54:34.719Z,39.93
2018-04-24T15:57:06.859Z,38.69
2018-04-24T15:59:39.126Z,38.02
2018-04-24T16:02:11.534Z,37.91
2018-04-24T16:04:43.926Z,38.59
2018-04-24T16:07:15.685Z,38.86
2018-04-24T16:09:48.548Z,39.82
2018-04-24T16:12:21.238Z,39.13
2018-04-24T16:14:52.853Z,39.91
2018-04-24T16:20:02.392Z,39.14
2018-04-24T16:22:38.004Z,39.13
2018-04-24T16:25:09.088Z,38.80
2018-04-24T16:27:44.601Z,39.29
2018-04-24T16:30:15.587Z,39.98
2018-04-24T16:32:50.924Z,39.71
2018-04-24T16:35:25.327Z,39.68
2018-04-24T16:37:55.669Z,40.16
2018-04-24T16:40:28.383Z,40.38
2018-04-24T16:42:58.269Z,39.64
2018-04-24T16:45:29.520Z,41.06
2018-04-24T16:48:01.354Z,39.78
2018-04-24T16:50:33.340Z,39.64
2018-04-24T16:53:09.987Z,40.14
2018-04-24T16:55:40.671Z,40.04
2018-04-24T16:58:11.964Z,39.93
2018-04-24T17:00:39.697Z,40.30
2018-04-24T17:03:07.251Z,40.06
2018-04-24T17:05:34.772Z,41.23
2018-04-24T17:08:02.319Z,40.98
2018-04-24T17:10:29.849Z,40.38
2018-04-24T17:12:57.430Z,40.29
2018-04-24T17:15:24.953Z,39.65
2018-04-24T17:17:56.087Z,39.06
2018-04-24T17:20:23.971Z,38.55
2018-04-24T17:22:55.332Z,38.67
2018-04-24T17:25:25.240Z,38.89
2018-04-24T17:27:59.869Z,38.29
2018-04-24T17:30:30.364Z,38.69
2018-04-24T17:33:01.622Z,39.56
2018-04-24T17:35:36.327Z,39.87
2018-04-24T17:38:08.225Z,39.87
2018-04-24T17:40:40.407Z,38.79
2018-04-24T17:43:17.708Z,38.83
2018-04-24T17:45:46.096Z,38.61
2018-04-24T17:48:15.759Z,40.49
2018-04-24T17:50:48.582Z,41.94
2018-04-24T17:56:02.622Z,41.93
2018-04-24T18:01:22.278Z,42.68
2018-04-24T18:03:57.172Z,43.71
2018-04-24T18:06:26.725Z,43.85
2018-04-24T18:08:54.930Z,44.51
2018-04-24T18:11:22.486Z,44.93
2018-04-24T18:13:50.029Z,45.05
2018-04-24T18:16:17.557Z,45.20
2018-04-24T18:18:45.114Z,45.40
2018-04-24T18:21:12.665Z,45.67
2018-04-24T18:23:40.217Z,46.35
2018-04-24T18:26:07.744Z,46.86
2018-04-24T18:28:35.302Z,46.90
2018-04-24T18:31:02.849Z,47.27
2018-04-24T18:33:30.418Z,47.35
2018-04-24T18:35:57.953Z,47.51
2018-04-24T18:38:25.505Z,48.02
2018-04-24T18:40:53.129Z,48.36
2018-04-24T18:43:20.687Z,48.88
2018-04-24T18:45:48.212Z,49.31
2018-04-24T18:48:15.881Z,49.55
2018-04-24T18:50:43.428Z,50.56
2018-04-24T18:53:11.612Z,50.34
2018-04-24T18:55:39.788Z,50.35
2018-04-24T18:58:07.372Z,50.77
2018-04-24T19:00:36.139Z,51.05
2018-04-24T19:03:03.826Z,51.06
2018-04-24T19:05:32.950Z,51.22
2018-04-24T19:08:00.480Z,52.16
2018-04-24T19:10:28.975Z,52.00
2018-04-24T19:12:57.215Z,52.07
2018-04-24T19:15:27.111Z,53.06
2018-04-24T19:17:55.133Z,53.52
2018-04-24T19:20:23.106Z,54.30
2018-04-24T19:22:51.011Z,54.96
2018-04-24T19:25:24.662Z,56.46
2018-04-24T19:27:52.246Z,56.44
2018-04-24T19:30:23.202Z,57.18
2018-04-24T19:32:51.333Z,57.72
2018-04-24T19:35:24.814Z,58.00
2018-04-24T19:37:53.137Z,58.45
2018-04-24T19:40:26.163Z,58.92
2018-04-24T19:42:54.037Z,60.59
2018-04-24T19:45:22.508Z,60.32
2018-04-24T19:47:50.787Z,60.14
2018-04-24T19:50:20.292Z,60.73
2018-04-24T19:52:48.538Z,61.38
2018-04-24T19:55:21.834Z,63.19
2018-04-24T19:57:49.993Z,61.97
2018-04-24T20:00:18.253Z,62.65
2018-04-24T20:02:56.871Z,62.52
2018-04-24T20:05:27.430Z,63.28
2018-04-24T20:07:57.085Z,62.71
2018-04-24T20:10:27.979Z,62.73
2018-04-24T20:12:58.482Z,63.00
2018-04-24T20:15:42.791Z,63.89
2018-04-24T20:18:10.908Z,63.87
2018-04-24T20:20:38.421Z,64.11
2018-04-24T20:23:06.422Z,64.12
2018-04-24T20:25:38.947Z,64.37
2018-04-24T20:28:09.545Z,64.52
2018-04-24T20:30:37.670Z,64.75
2018-04-24T20:33:05.209Z,65.24
2018-04-24T20:35:32.734Z,66.41
2018-04-24T20:38:00.413Z,65.80
2018-04-24T20:40:30.279Z,66.09
2018-04-24T20:42:58.020Z,65.85
2018-04-24T20:45:25.716Z,66.57
2018-04-24T20:47:55.778Z,66.55
2018-04-24T20:50:27.243Z,66.87
2018-04-24T20:52:55.824Z,66.65
2018-04-24T20:55:24.593Z,66.68
2018-04-24T20:57:54.383Z,67.81
2018-04-24T21:00:24.346Z,67.57
2018-04-24T21:02:52.512Z,67.83
2018-04-24T21:05:20.106Z,68.01
2018-04-24T21:07:49.789Z,67.38
2018-04-24T21:10:19.311Z,66.40
2018-04-24T21:12:47.039Z,67.99
2018-04-24T21:15:14.567Z,68.20
2018-04-24T21:17:42.094Z,68.78
2018-04-24T21:20:09.674Z,69.57
2018-04-24T21:22:37.200Z,69.37
2018-04-24T21:25:05.652Z,69.53
2018-04-24T21:27:34.473Z,70.00
2018-04-24T21:30:03.403Z,71.57
2018-04-24T21:32:31.456Z,71.03
2018-04-24T21:34:59.182Z,70.69
2018-04-24T21:37:27.563Z,70.56
2018-04-24T21:39:55.789Z,70.66
2018-04-24T21:42:24.288Z,70.45
2018-04-24T21:44:51.841Z,71.40
2018-04-24T21:47:19.946Z,71.14
2018-04-24T21:49:47.606Z,71.59
2018-04-24T21:52:15.676Z,71.02
2018-04-24T21:54:43.432Z,71.29
2018-04-24T21:57:11.104Z,71.77
2018-04-24T21:59:38.663Z,71.86
2018-04-24T22:02:06.611Z,72.03
2018-04-24T22:04:34.266Z,71.59
2018-04-24T22:07:01.894Z,71.75
2018-04-24T22:09:29.744Z,72.95
2018-04-24T22:11:57.492Z,72.24
2018-04-24T22:14:25.272Z,71.83
2018-04-24T22:16:52.925Z,72.35
2018-04-24T22:19:20.875Z,72.57
2018-04-24T22:21:48.723Z,72.56
2018-04-24T22:24:16.357Z,73.00
2018-04-24T22:26:44.057Z,73.71
2018-04-24T22:29:11.581Z,73.52
2018-04-24T22:31:40.186Z,73.67
2018-04-24T22:34:08.077Z,74.15
2018-04-24T22:36:35.817Z,73.77
2018-04-24T22:39:03.782Z,72.69
2018-04-24T22:41:31.519Z,72.35
2018-04-24T22:43:59.093Z,73.47
2018-04-24T22:46:27.419Z,74.39
2018-04-24T22:48:55.177Z,74.59
2018-04-24T22:51:22.705Z,73.26
2018-04-24T22:53:50.258Z,74.65
2018-04-24T22:56:17.766Z,74.22
2018-04-24T22:58:45.435Z,74.91
2018-04-24T23:01:12.954Z,74.60
2018-04-24T23:03:40.544Z,75.02
2018-04-24T23:06:08.209Z,74.38
2018-04-24T23:08:35.757Z,75.69
2018-04-24T23:11:15.714Z,74.71
2018-04-24T23:13:55.049Z,76.55
2018-04-24T23:16:34.581Z,75.66
2018-04-24T23:19:14.155Z,75.94
2018-04-24T23:21:41.151Z,74.72
2018-04-24T23:24:08.725Z,75.29
2018-04-24T23:26:36.234Z,76.21
2018-04-24T23:29:04.059Z,76.49
2018-04-24T23:31:31.615Z,76.20
2018-04-24T23:33:59.267Z,76.00
2018-04-24T23:36:26.793Z,75.70
2018-04-24T23:38:54.445Z,77.48
2018-04-24T23:41:21.973Z,76.92
2018-04-24T23:43:49.526Z,77.21
2018-04-24T23:46:17.028Z,76.58
2018-04-24T23:48:44.580Z,76.67
2018-04-24T23:51:12.109Z,76.29
2018-04-24T23:53:39.665Z,76.80
2018-04-24T23:56:07.189Z,75.98
2018-04-24T23:58:34.732Z,75.90
